Terminal Aerodrome Forecast
Issued by NWS

Home | Current Version | Previous Version | Text Only | Print | Product List | Glossary On
Versions: 1 2 3 4 5 6 7 8 9 10 11 12 13 14 15 16 17 18 19 20 21
000
FTUS42 KMLB 271035 AAC
TAFSUA
TAF AMD
KSUA 271035Z 2711/2806 20004KT 5SM BR VCTS SCT008 SCT012CB
      TEMPO 2711/2712 3SM TSRA BKN005 OVC015CB
     FM271300 20012KT P6SM VCSH SCT025 OVC060
     FM271600 22014G24KT 5SM SHRA VCTS BKN020CB OVC050
     FM271900 23017KT P6SM VCSH BKN020 OVC050
     FM280300 29013KT P6SM SCT035=

USA.gov is the U.S. government's official web portal to all federal, state and local government web resources and services.